Time;durP1;ratioP1;P1;durP2;ratioP2;P2;SDS_P1;SDS_P2;PMS_P1;PMS_P2;Temp;Humidity;BMP_temperature;BMP_pressure;BME280_temperature;BME280_humidity;BME280_pressure;Samples;Min_cycle;Max_cycle;Signal;HPM_P1;HPM_P2
2023/06/25 00:00:30;;;;;;;5.80;5.30;;;;;;;21.18;100.00;100122.11;90970;1273;138338;-70
2023/06/25 00:02:32;;;;;;;6.30;5.90;;;;;;;21.24;100.00;100122.58;91129;1272;22171;-69
2023/06/25 00:04:34;;;;;;;5.00;4.70;;;;;;;21.23;100.00;100118.45;90982;1271;138382;-69
2023/06/25 00:06:35;;;;;;;6.80;6.30;;;;;;;21.31;100.00;100129.55;91007;1277;22209;-69
2023/06/25 00:08:37;;;;;;;5.60;4.90;;;;;;;21.32;100.00;100133.30;90993;1272;138687;-69
2023/06/25 00:10:39;;;;;;;5.00;4.70;;;;;;;21.33;100.00;100136.01;91106;1277;23345;-70
2023/06/25 00:12:40;;;;;;;6.10;5.60;;;;;;;21.33;100.00;100141.10;91008;1272;139413;-69
2023/06/25 00:14:42;;;;;;;6.60;6.00;;;;;;;21.28;100.00;100141.63;91082;1272;22946;-69
2023/06/25 00:16:44;;;;;;;5.80;5.40;;;;;;;21.12;100.00;100144.30;91002;1272;138563;-68
2023/06/25 00:18:47;;;;;;;6.20;5.50;;;;;;;20.91;100.00;100145.93;91130;1259;22317;-69
2023/06/25 00:20:49;;;;;;;6.90;5.80;;;;;;;20.72;100.00;100147.10;90957;1272;141888;-69
2023/06/25 00:22:51;;;;;;;9.10;6.00;;;;;;;20.55;100.00;100153.09;91107;1272;22378;-70
2023/06/25 00:25:08;;;;;;;9.10;5.30;;;;;;;20.43;100.00;100154.60;90949;1279;140308;-69
2023/06/25 00:27:09;;;;;;;7.00;6.50;;;;;;;20.49;100.00;100154.53;91076;1273;22514;-69
2023/06/25 00:29:13;;;;;;;5.40;4.90;;;;;;;20.56;100.00;100153.51;90996;1272;139929;-68
2023/06/25 00:31:15;;;;;;;7.80;7.00;;;;;;;20.57;100.00;100154.60;91082;1273;22195;-68
2023/06/25 00:33:17;;;;;;;6.10;5.60;;;;;;;20.51;100.00;100145.67;90982;1272;138963;-69
2023/06/25 00:35:19;;;;;;;6.60;6.10;;;;;;;20.46;100.00;100155.00;91105;1279;23021;-69
2023/06/25 00:37:20;;;;;;;6.10;5.40;;;;;;;20.41;100.00;100153.94;90948;1272;139009;-69
2023/06/25 00:39:22;;;;;;;5.40;5.00;;;;;;;20.49;100.00;100152.92;90995;1263;23057;-69
2023/06/25 00:41:26;;;;;;;5.90;5.40;;;;;;;20.70;100.00;100152.23;90966;1260;138854;-69
2023/06/25 00:43:28;;;;;;;;;;;;;;;20.97;100.00;100154.41;91122;1276;22402;-68
2023/06/25 00:45:30;;;;;;;10.10;6.50;;;;;;;21.21;100.00;100152.00;90876;1273;125160;-69
2023/06/25 00:47:32;;;;;;;8.20;7.50;;;;;;;21.34;100.00;100154.99;91131;1279;22293;-68
2023/06/25 00:49:37;;;;;;;7.40;6.60;;;;;;;21.30;100.00;100150.48;90982;1272;138823;-68
2023/06/25 00:51:39;;;;;;;9.00;7.30;;;;;;;21.18;100.00;100152.20;91091;1272;22806;-68
2023/06/25 00:53:41;;;;;;;9.30;8.30;;;;;;;20.97;100.00;100145.47;90993;1272;139288;-69
2023/06/25 00:55:43;;;;;;;9.10;7.60;;;;;;;20.72;100.00;100141.75;91080;1276;22238;-68
2023/06/25 00:57:45;;;;;;;7.70;7.10;;;;;;;20.55;100.00;100145.02;90988;1273;138654;-69
2023/06/25 00:59:48;;;;;;;7.90;7.10;;;;;;;20.40;100.00;100143.26;91089;1273;22294;-69
2023/06/25 01:01:58;;;;;;;7.40;6.80;;;;;;;20.20;100.00;100140.21;90876;1272;139513;-69
2023/06/25 01:04:08;;;;;;;8.00;6.90;;;;;;;20.00;100.00;100138.80;90992;1259;22244;-69
2023/06/25 01:06:15;;;;;;;7.70;7.00;;;;;;;19.84;100.00;100136.89;91109;1272;22346;-69
2023/06/25 01:08:17;;;;;;;8.30;7.30;;;;;;;19.66;100.00;100137.71;90994;1272;140217;-68
2023/06/25 01:10:19;;;;;;;6.80;6.30;;;;;;;19.60;100.00;100136.98;91138;1264;22208;-69
2023/06/25 01:12:21;;;;;;;7.00;6.40;;;;;;;19.52;100.00;100134.99;90958;1272;138442;-69
2023/06/25 01:14:28;;;;;;;6.70;6.10;;;;;;;19.37;100.00;100131.52;91040;1272;22331;-69
2023/06/25 01:16:30;;;;;;;7.10;6.60;;;;;;;19.21;100.00;100129.16;90969;1273;138527;-69
2023/06/25 01:18:32;;;;;;;6.60;6.10;;;;;;;19.05;100.00;100128.04;91120;1272;22228;-69
2023/06/25 01:20:38;;;;;;;7.20;6.60;;;;;;;18.92;100.00;100118.89;90980;1272;141058;-69
2023/06/25 01:22:40;;;;;;;7.10;6.60;;;;;;;18.79;100.00;100113.67;91068;1272;22858;-69
2023/06/25 01:24:44;;;;;;;6.60;6.20;;;;;;;18.71;100.00;100109.70;90924;1260;139847;-68
2023/06/25 01:26:46;;;;;;;7.20;6.70;;;;;;;18.66;100.00;100109.90;91095;1272;22406;-68
2023/06/25 01:28:48;;;;;;;8.30;7.70;;;;;;;18.60;100.00;100107.55;91007;1256;138434;-68
2023/06/25 01:30:52;;;;;;;7.60;7.00;;;;;;;18.51;100.00;100095.53;91096;1273;22464;-69
2023/06/25 01:32:54;;;;;;;7.80;7.20;;;;;;;18.49;100.00;100090.65;90962;1273;138090;-68
2023/06/25 01:34:56;;;;;;;7.40;6.90;;;;;;;18.53;100.00;100093.73;91114;1269;22161;-69
2023/06/25 01:36:58;;;;;;;8.00;7.40;;;;;;;18.53;100.00;100090.16;91022;1272;139212;-68
2023/06/25 01:38:59;;;;;;;7.10;6.60;;;;;;;18.53;100.00;100088.01;91180;1257;23167;-68
2023/06/25 01:41:02;;;;;;;7.70;6.90;;;;;;;18.52;100.00;100083.94;90924;1275;138706;-69
2023/06/25 01:43:04;;;;;;;8.10;7.30;;;;;;;18.51;100.00;100080.26;91175;1272;22972;-70
2023/06/25 01:45:06;;;;;;;8.60;7.80;;;;;;;18.52;100.00;100079.08;91006;1272;139257;-68
2023/06/25 01:47:08;;;;;;;8.80;8.10;;;;;;;18.53;100.00;100076.34;91112;1272;22326;-69
2023/06/25 01:49:09;;;;;;;7.60;6.90;;;;;;;18.54;100.00;100077.13;90956;1280;140957;-69
2023/06/25 01:51:33;;;;;;;7.60;7.10;;;;;;;18.55;100.00;100080.04;91120;1272;22375;-70
2023/06/25 01:53:35;;;;;;;8.60;8.00;;;;;;;18.55;100.00;100075.84;90947;1272;138233;-69
2023/06/25 01:55:37;;;;;;;10.20;8.10;;;;;;;18.56;100.00;100073.38;91033;1274;22284;-69
2023/06/25 01:57:39;;;;;;;8.60;7.80;;;;;;;18.57;100.00;100069.65;90922;1259;138889;-70
2023/06/25 01:59:41;;;;;;;8.90;7.90;;;;;;;18.57;100.00;100073.30;91038;1273;22999;-69
2023/06/25 02:01:43;;;;;;;9.00;8.30;;;;;;;18.60;100.00;100075.33;90880;1273;140748;-69
2023/06/25 02:03:44;;;;;;;7.80;7.30;;;;;;;18.62;100.00;100076.80;91132;1272;22254;-68
2023/06/25 02:05:46;;;;;;;9.00;8.00;;;;;;;18.64;100.00;100079.05;90904;1259;139363;-68
2023/06/25 02:07:48;;;;;;;8.40;7.60;;;;;;;18.66;100.00;100078.53;91147;1272;22974;-68
2023/06/25 02:09:49;;;;;;;9.90;9.00;;;;;;;18.67;100.00;100076.27;91017;1272;140394;-67
2023/06/25 02:11:51;;;;;;;9.30;8.40;;;;;;;18.67;100.00;100077.68;91113;1260;22331;-69
2023/06/25 02:13:53;;;;;;;9.10;8.40;;;;;;;18.69;100.00;100077.34;91071;1279;138529;-69
2023/06/25 02:15:55;;;;;;;8.50;7.80;;;;;;;18.72;100.00;100081.75;91002;1272;22449;-68
2023/06/25 02:17:56;;;;;;;8.90;8.30;;;;;;;18.77;100.00;100087.98;90946;1275;138306;-69
2023/06/25 02:19:58;;;;;;;9.00;8.30;;;;;;;18.82;100.00;100089.05;91122;1272;22104;-68
2023/06/25 02:22:00;;;;;;;9.80;8.80;;;;;;;18.86;100.00;100083.27;91002;1272;139120;-68
2023/06/25 02:24:02;;;;;;;9.20;8.30;;;;;;;18.89;100.00;100080.83;91098;1272;22425;-68
2023/06/25 02:26:04;;;;;;;9.30;8.60;;;;;;;18.92;100.00;100080.33;91097;1272;22308;-68
2023/06/25 02:28:05;;;;;;;10.10;9.30;;;;;;;18.96;100.00;100084.16;91021;1272;138993;-68
2023/06/25 02:30:07;;;;;;;11.20;10.30;;;;;;;19.00;100.00;100079.67;91091;1273;23192;-68
2023/06/25 02:32:09;;;;;;;7.70;7.20;;;;;;;19.02;100.00;100074.48;90913;1273;140004;-68
2023/06/25 02:34:11;;;;;;;9.10;8.40;;;;;;;19.04;100.00;100067.48;91124;1272;22359;-68
2023/06/25 02:36:13;;;;;;;8.80;7.90;;;;;;;19.07;100.00;100065.40;91021;1272;138569;-68
2023/06/25 02:38:15;;;;;;;11.10;10.20;;;;;;;19.12;100.00;100065.02;91113;1258;23065;-69
2023/06/25 02:40:17;;;;;;;10.90;10.00;;;;;;;19.15;100.00;100062.73;91040;1271;139602;-69
2023/06/25 02:42:18;;;;;;;10.20;9.30;;;;;;;19.17;100.00;100058.98;91142;1273;22191;-67
2023/06/25 02:44:20;;;;;;;10.90;10.10;;;;;;;19.19;100.00;100056.04;91030;1272;138809;-68
2023/06/25 02:46:22;;;;;;;9.80;8.80;;;;;;;19.21;100.00;100054.98;91127;1256;23038;-68
2023/06/25 02:48:24;;;;;;;9.90;9.10;;;;;;;19.22;100.00;100052.82;90935;1268;140684;-68
2023/06/25 02:50:26;;;;;;;9.00;8.20;;;;;;;19.24;100.00;100050.20;91243;1259;22319;-68
2023/06/25 02:52:28;;;;;;;9.30;8.50;;;;;;;19.26;100.00;100048.98;90890;1274;138326;-69
2023/06/25 02:54:29;;;;;;;12.00;8.10;;;;;;;19.26;100.00;100047.03;91138;1263;22226;-68
2023/06/25 02:56:32;;;;;;;8.40;7.70;;;;;;;19.26;100.00;100048.55;91042;1273;139298;-68
2023/06/25 02:58:34;;;;;;;9.00;8.30;;;;;;;19.28;100.00;100053.10;91145;1272;22172;-68
2023/06/25 03:00:36;;;;;;;8.30;7.70;;;;;;;19.29;100.00;100053.38;91003;1272;140331;-67
2023/06/25 03:02:37;;;;;;;8.10;7.40;;;;;;;19.33;100.00;100052.66;91053;1269;22936;-67
2023/06/25 03:04:40;;;;;;;9.00;8.20;;;;;;;19.35;100.00;100051.55;90893;1265;140233;-66
2023/06/25 03:06:42;;;;;;;8.20;7.60;;;;;;;19.37;100.00;100054.17;91152;1274;22101;-67
2023/06/25 03:08:44;;;;;;;9.10;8.40;;;;;;;19.39;100.00;100055.27;90980;1272;139533;-68
2023/06/25 03:10:46;;;;;;;9.00;8.30;;;;;;;19.41;100.00;100053.20;91013;1274;22964;-67
2023/06/25 03:12:47;;;;;;;10.40;9.60;;;;;;;19.43;100.00;100051.77;90936;1273;139247;-68
2023/06/25 03:14:49;;;;;;;8.30;7.60;;;;;;;19.43;100.00;100053.55;91120;1272;22314;-67
2023/06/25 03:16:51;;;;;;;8.90;8.30;;;;;;;19.43;100.00;100054.18;91021;1272;141705;-68
2023/06/25 03:18:52;;;;;;;10.30;9.40;;;;;;;19.48;100.00;100058.84;91209;1265;23521;-67
2023/06/25 03:20:54;;;;;;;8.90;8.10;;;;;;;19.50;100.00;100057.52;91023;1256;139565;-68
2023/06/25 03:22:56;;;;;;;9.20;8.50;;;;;;;19.51;100.00;100054.54;91149;1279;22302;-68
2023/06/25 03:24:57;;;;;;;9.70;8.90;;;;;;;19.50;100.00;100052.11;90902;1275;138799;-67
2023/06/25 03:27:00;;;;;;;10.00;9.30;;;;;;;19.49;100.00;100053.34;91042;1274;22720;-68
2023/06/25 03:29:02;;;;;;;10.60;9.90;;;;;;;19.50;100.00;100053.51;91053;1272;139962;-68
2023/06/25 03:31:04;;;;;;;9.20;7.80;;;;;;;19.51;100.00;100052.06;91105;1272;22250;-68
2023/06/25 03:33:11;;;;;;;10.90;10.00;;;;;;;19.51;100.00;100049.93;90929;1275;139669;-69
2023/06/25 03:35:13;;;;;;;11.00;10.00;;;;;;;19.52;100.00;100047.85;91145;1272;22295;-68
2023/06/25 03:37:16;;;;;;;9.60;8.90;;;;;;;19.52;100.00;100044.39;90926;1268;140902;-68
2023/06/25 03:39:18;;;;;;;10.10;9.30;;;;;;;19.54;100.00;100041.75;91174;1259;22101;-68
2023/06/25 03:41:20;;;;;;;9.70;8.80;;;;;;;19.55;100.00;100037.61;91000;1272;139775;-69
2023/06/25 03:43:22;;;;;;;10.00;9.10;;;;;;;19.56;100.00;100041.73;91051;1268;22213;-68
2023/06/25 03:45:24;;;;;;;10.60;9.70;;;;;;;19.58;100.00;100036.77;90899;1268;140387;-69
2023/06/25 03:47:26;;;;;;;11.40;10.30;;;;;;;19.59;100.00;100042.79;91168;1259;22197;-69
2023/06/25 03:49:28;;;;;;;9.70;9.00;;;;;;;19.61;100.00;100039.61;90911;1274;139440;-68
2023/06/25 03:51:29;;;;;;;9.60;8.80;;;;;;;19.62;100.00;100035.67;91133;1272;22988;-69
2023/06/25 03:53:31;;;;;;;9.20;8.50;;;;;;;19.62;100.00;100035.07;91017;1260;139429;-69
2023/06/25 03:55:33;;;;;;;9.10;8.50;;;;;;;19.61;100.00;100033.41;91049;1273;22998;-68
2023/06/25 03:57:35;;;;;;;10.10;9.40;;;;;;;19.62;100.00;100031.89;91016;1272;138308;-69
2023/06/25 03:59:36;;;;;;;9.50;8.80;;;;;;;19.62;100.00;100037.34;91066;1275;22313;-69
2023/06/25 04:01:38;;;;;;;8.80;8.20;;;;;;;19.61;100.00;100040.11;90852;1272;139659;-69
2023/06/25 04:03:40;;;;;;;9.60;8.80;;;;;;;19.63;100.00;100039.31;91083;1272;22221;-69
2023/06/25 04:05:44;;;;;;;8.60;8.00;;;;;;;19.66;100.00;100037.45;91050;1272;139106;-70
2023/06/25 04:07:46;;;;;;;9.50;8.70;;;;;;;19.70;100.00;100034.94;91161;1271;22411;-68
2023/06/25 04:09:48;;;;;;;10.60;9.80;;;;;;;19.72;100.00;100032.36;91029;1271;139099;-70
2023/06/25 04:11:50;;;;;;;10.30;9.50;;;;;;;19.71;100.00;100033.98;91197;1272;22301;-69
2023/06/25 04:13:52;;;;;;;9.60;9.00;;;;;;;19.71;100.00;100037.59;91060;1271;138659;-70
2023/06/25 04:15:56;;;;;;;9.10;8.50;;;;;;;19.72;100.00;100039.25;91004;1262;22918;-68
2023/06/25 04:17:57;;;;;;;11.00;9.90;;;;;;;19.74;100.00;100041.12;91056;1272;138137;-70
2023/06/25 04:19:59;;;;;;;9.60;8.80;;;;;;;19.77;100.00;100041.20;91214;1272;22116;-69
2023/06/25 04:22:01;;;;;;;10.40;9.30;;;;;;;19.81;100.00;100037.61;91077;1271;138158;-69
2023/06/25 04:24:03;;;;;;;9.80;8.90;;;;;;;19.86;100.00;100042.61;90947;1261;139995;-68
2023/06/25 04:26:05;;;;;;;9.60;8.90;;;;;;;19.89;100.00;100040.71;91154;1271;22394;-69
2023/06/25 04:28:13;;;;;;;8.90;8.20;;;;;;;19.93;100.00;100036.64;90965;1272;139969;-69
2023/06/25 04:30:15;;;;;;;10.30;9.40;;;;;;;19.99;100.00;100035.02;91148;1272;22413;-68
2023/06/25 04:32:17;;;;;;;9.10;8.50;;;;;;;20.04;100.00;100032.99;90937;1272;139255;-69
2023/06/25 04:34:19;;;;;;;9.50;8.50;;;;;;;20.10;100.00;100032.45;91100;1272;22142;-69
2023/06/25 04:36:23;;;;;;;9.90;8.90;;;;;;;20.15;100.00;100031.62;91028;1271;139196;-67
2023/06/25 04:38:30;;;;;;;10.00;9.30;;;;;;;20.21;100.00;100030.02;91165;1272;22446;-70
2023/06/25 04:40:31;;;;;;;10.50;9.80;;;;;;;20.30;100.00;100030.80;91068;1272;138667;-73
2023/06/25 04:42:33;;;;;;;9.30;8.60;;;;;;;20.38;100.00;100027.13;91065;1272;22142;-69
2023/06/25 04:44:35;;;;;;;10.30;9.60;;;;;;;20.48;100.00;100026.48;90975;1272;138385;-69
2023/06/25 04:46:36;;;;;;;10.60;9.80;;;;;;;20.55;100.00;100022.79;91069;1272;23224;-71
2023/06/25 04:48:38;;;;;;;10.80;9.90;;;;;;;20.60;100.00;100025.77;90928;1268;139975;-71
2023/06/25 04:50:40;;;;;;;11.30;10.20;;;;;;;20.66;100.00;100025.10;91086;1262;22217;-72
2023/06/25 04:52:41;;;;;;;10.30;9.60;;;;;;;20.74;100.00;100025.02;91060;1272;138529;-70
2023/06/25 04:54:43;;;;;;;10.10;9.20;;;;;;;20.81;100.00;100027.88;91197;1272;22408;-71
2023/06/25 04:56:45;;;;;;;10.80;10.00;;;;;;;20.90;100.00;100025.98;91054;1271;138527;-71
2023/06/25 04:58:46;;;;;;;10.70;9.60;;;;;;;21.00;100.00;100029.20;91152;1272;22218;-70
2023/06/25 05:00:48;;;;;;;10.10;9.30;;;;;;;21.12;100.00;100026.64;91044;1272;138410;-67
2023/06/25 05:02:50;;;;;;;10.50;9.60;;;;;;;21.20;100.00;100024.83;91088;1272;22346;-70
2023/06/25 05:04:51;;;;;;;10.50;9.60;;;;;;;21.30;100.00;100021.55;91063;1271;139945;-71
2023/06/25 05:06:54;;;;;;;9.60;8.90;;;;;;;21.40;100.00;100020.33;91186;1271;22636;-71
2023/06/25 05:08:56;;;;;;;10.10;9.10;;;;;;;21.54;100.00;100011.16;91072;1272;138337;-69
2023/06/25 05:10:58;;;;;;;9.80;8.90;;;;;;;21.83;100.00;100016.98;91104;1267;22335;-70
2023/06/25 05:13:00;;;;;;;7.50;7.00;;;;;;;22.02;100.00;100019.10;91065;1271;139875;-72
2023/06/25 05:15:02;;;;;;;8.40;7.80;;;;;;;22.17;100.00;100022.23;91108;1272;22323;-72
2023/06/25 05:17:04;;;;;;;8.20;7.50;;;;;;;22.27;100.00;100024.48;91069;1272;139323;-71
2023/06/25 05:19:06;;;;;;;7.30;6.70;;;;;;;22.36;100.00;100027.41;91132;1271;23199;-69
2023/06/25 05:21:07;;;;;;;8.20;7.70;;;;;;;22.43;100.00;100025.71;91086;1272;138227;-70
2023/06/25 05:23:09;;;;;;;8.60;8.00;;;;;;;22.44;100.00;100030.00;91178;1271;22612;-71
2023/06/25 05:25:11;;;;;;;10.60;9.40;;;;;;;22.37;100.00;100025.73;91035;1271;139550;-72
2023/06/25 05:27:13;;;;;;;8.60;8.00;;;;;;;22.36;100.00;100023.98;91110;1272;23125;-72
2023/06/25 05:29:14;;;;;;;9.00;8.30;;;;;;;22.34;100.00;100025.46;91061;1272;138318;-71
2023/06/25 05:31:16;;;;;;;8.70;8.00;;;;;;;22.30;100.00;100022.48;91198;1271;22413;-70
2023/06/25 05:33:18;;;;;;;9.70;8.90;;;;;;;22.28;100.00;100021.72;90958;1272;140611;-70
2023/06/25 05:35:19;;;;;;;9.70;8.70;;;;;;;22.24;100.00;100017.77;91161;1272;22219;-70
2023/06/25 05:37:21;;;;;;;7.90;7.40;;;;;;;22.21;100.00;100018.81;91078;1272;139990;-71
2023/06/25 05:39:28;;;;;;;8.50;7.90;;;;;;;22.18;100.00;100019.69;91045;1272;23191;-72
2023/06/25 05:41:30;;;;;;;9.20;8.50;;;;;;;22.14;100.00;100019.70;91022;1272;139230;-72
2023/06/25 05:43:31;;;;;;;9.30;8.50;;;;;;;22.09;100.00;100017.52;91187;1272;23214;-71
2023/06/25 05:45:33;;;;;;;14.20;12.90;;;;;;;22.10;100.00;100017.36;91066;1272;138061;-68
2023/06/25 05:47:35;;;;;;;13.70;12.70;;;;;;;22.15;100.00;100017.84;91158;1271;22312;-70
2023/06/25 05:49:36;;;;;;;11.30;10.40;;;;;;;22.26;100.00;100015.03;91032;1272;139465;-71
2023/06/25 05:51:38;;;;;;;12.30;11.30;;;;;;;22.44;100.00;100016.48;91178;1271;22137;-69
2023/06/25 05:53:43;;;;;;;11.60;10.70;;;;;;;22.55;100.00;100020.52;91039;1272;139859;-68
2023/06/25 05:55:44;;;;;;;9.30;8.60;;;;;;;22.65;100.00;100022.61;91133;1272;22415;-73
2023/06/25 05:57:46;;;;;;;10.20;9.30;;;;;;;22.71;100.00;100025.80;91063;1272;138447;-72
2023/06/25 05:59:48;;;;;;;12.80;11.80;;;;;;;22.71;100.00;100024.48;91188;1272;22500;-73
2023/06/25 06:01:49;;;;;;;10.10;9.30;;;;;;;22.71;100.00;100025.52;91039;1272;140201;-69
2023/06/25 06:03:54;;;;;;;8.10;7.60;;;;;;;22.76;100.00;100022.20;91141;1271;23172;-70
2023/06/25 06:05:57;;;;;;;8.60;7.90;;;;;;;22.75;100.00;100020.95;91053;1271;138200;-71
2023/06/25 06:07:58;;;;;;;8.10;7.50;;;;;;;22.70;100.00;100018.58;91170;1271;22109;-75
2023/06/25 06:12:59;;;;;;;8.60;7.90;;;;;;;22.60;100.00;100018.07;85023;1307;549432;-70
2023/06/25 06:15:00;;;;;;;8.10;7.50;;;;;;;22.65;100.00;100017.39;87206;1284;22540;-70
2023/06/25 06:17:01;;;;;;;10.50;9.60;;;;;;;22.75;100.00;100024.05;86965;1287;140016;-69
2023/06/25 06:19:02;;;;;;;9.20;8.50;;;;;;;22.84;100.00;100023.41;87138;1283;24085;-69
2023/06/25 06:21:03;;;;;;;9.60;8.90;;;;;;;22.90;100.00;100024.10;87118;1283;140288;-67
2023/06/25 06:23:04;;;;;;;7.80;7.30;;;;;;;22.90;100.00;100022.52;87422;1284;24273;-69
2023/06/25 06:25:06;;;;;;;9.90;9.10;;;;;;;22.95;100.00;100027.13;87052;1287;142082;-71
2023/06/25 06:27:07;;;;;;;8.20;7.60;;;;;;;22.96;100.00;100026.67;87656;1281;208355;-67
2023/06/25 06:29:08;;;;;;;9.60;8.80;;;;;;;22.98;100.00;100023.52;90963;1271;138037;-70
2023/06/25 06:31:09;;;;;;;8.90;8.10;;;;;;;23.02;100.00;100021.84;91166;1270;22354;-71
2023/06/25 06:33:10;;;;;;;11.00;10.00;;;;;;;23.05;100.00;100022.54;91051;1270;139018;-71
2023/06/25 06:35:11;;;;;;;9.50;8.70;;;;;;;23.05;100.00;100020.68;91132;1270;22476;-71
2023/06/25 06:37:12;;;;;;;10.40;9.40;;;;;;;23.06;100.00;100017.33;91070;1270;137773;-75
2023/06/25 06:39:15;;;;;;;10.40;9.70;;;;;;;23.15;100.00;100021.89;91181;1273;22461;-72
2023/06/25 06:41:16;;;;;;;9.70;8.90;;;;;;;23.31;100.00;100024.80;91021;1272;138239;-73
2023/06/25 06:43:17;;;;;;;7.20;6.80;;;;;;;23.49;100.00;100024.20;91183;1259;22135;-71
2023/06/25 06:45:18;;;;;;;6.10;5.70;;;;;;;23.57;100.00;100025.30;91094;1271;139436;-70
2023/06/25 06:47:19;;;;;;;7.20;6.70;;;;;;;23.56;100.00;100027.73;91140;1270;22434;-73
2023/06/25 06:49:21;;;;;;;6.60;6.10;;;;;;;23.55;97.62;100028.63;91030;1271;137913;-70
2023/06/25 06:51:22;;;;;;;5.30;4.90;;;;;;;23.53;95.38;100031.19;91177;1270;22305;-72
2023/06/25 06:53:25;;;;;;;4.70;4.40;;;;;;;23.52;95.33;100027.86;91026;1268;137950;-69
2023/06/25 06:55:26;;;;;;;5.00;4.70;;;;;;;23.54;91.79;100026.62;91132;1270;22319;-71
2023/06/25 06:57:27;;;;;;;4.60;4.40;;;;;;;23.47;91.56;100016.48;91035;1270;138328;-72
2023/06/25 06:59:28;;;;;;;8.70;7.90;;;;;;;23.50;93.10;100022.51;91152;1259;23195;-71
2023/06/25 07:01:29;;;;;;;6.80;6.20;;;;;;;23.47;93.90;100009.64;91045;1273;138682;-72
2023/06/25 07:03:30;;;;;;;7.40;6.70;;;;;;;23.58;94.91;100009.67;91188;1273;22326;-71
2023/06/25 07:05:31;;;;;;;5.80;5.50;;;;;;;23.78;95.46;100015.20;91025;1270;137738;-72
2023/06/25 07:07:32;;;;;;;8.20;6.50;;;;;;;23.90;95.97;100014.52;91169;1270;23330;-72
2023/06/25 07:09:33;;;;;;;7.20;6.70;;;;;;;23.93;95.89;100009.70;91058;1270;138256;-74
2023/06/25 07:11:34;;;;;;;6.10;5.60;;;;;;;23.94;94.70;100008.77;91089;1270;22348;-73
2023/06/25 07:13:36;;;;;;;7.20;6.50;;;;;;;24.00;94.51;100009.21;91046;1270;138702;-71
2023/06/25 07:15:37;;;;;;;6.80;6.30;;;;;;;24.10;95.39;100009.17;91182;1273;22315;-75
2023/06/25 07:17:39;;;;;;;8.30;7.80;;;;;;;24.14;96.76;100011.75;91011;1270;140526;-71
2023/06/25 07:19:41;;;;;;;6.60;6.00;;;;;;;24.17;97.42;100008.45;91189;1273;22353;-70
2023/06/25 07:21:43;;;;;;;7.10;6.50;;;;;;;24.14;97.79;100004.99;91029;1273;139087;-74
2023/06/25 07:23:44;;;;;;;6.80;6.40;;;;;;;23.99;95.40;100006.27;91150;1270;23093;-72
2023/06/25 07:25:46;;;;;;;6.70;6.10;;;;;;;23.87;93.88;100006.92;91031;1272;137618;-72
2023/06/25 07:27:48;;;;;;;6.80;6.40;;;;;;;23.71;93.09;99999.08;91083;1272;23183;-73
2023/06/25 07:29:49;;;;;;;8.00;7.30;;;;;;;23.66;92.79;99996.88;91038;1271;138181;-73
2023/06/25 07:31:51;;;;;;;6.60;6.20;;;;;;;23.66;93.62;99998.23;91160;1274;22349;-73
2023/06/25 07:33:53;;;;;;;6.70;6.20;;;;;;;23.75;93.92;100005.14;91027;1272;138668;-74
2023/06/25 07:35:54;;;;;;;6.70;6.20;;;;;;;23.83;93.90;100006.95;91128;1270;23764;-73
2023/06/25 07:37:56;;;;;;;6.20;5.70;;;;;;;23.88;94.22;100007.30;91064;1276;137693;-69
2023/06/25 07:39:58;;;;;;;5.30;5.00;;;;;;;23.90;95.26;100008.10;91086;1272;22367;-74
2023/06/25 07:42:00;;;;;;;4.60;4.40;;;;;;;23.88;91.93;100009.15;91047;1270;137380;-74
2023/06/25 07:44:02;;;;;;;5.30;4.90;;;;;;;23.83;88.97;100007.84;91146;1270;23287;-72
2023/06/25 07:46:24;;;;;;;6.10;5.70;;;;;;;23.79;89.14;100011.50;91064;1270;22438;-73
2023/06/25 07:48:26;;;;;;;4.60;4.40;;;;;;;23.80;90.64;100012.90;91002;1272;138146;-72
2023/06/25 07:50:27;;;;;;;7.60;7.00;;;;;;;23.81;90.56;100014.21;91126;1273;22196;-72
2023/06/25 07:52:29;;;;;;;6.90;6.40;;;;;;;23.83;91.68;100013.64;91022;1270;140845;-72
2023/06/25 07:54:30;;;;;;;5.10;4.90;;;;;;;23.82;92.90;100002.16;91140;1272;22480;-72
2023/06/25 07:56:32;;;;;;;4.10;3.90;;;;;;;23.97;88.12;100014.68;91036;1270;139188;-72
2023/06/25 07:58:34;;;;;;;3.30;3.10;;;;;;;23.95;85.77;100013.67;91140;1270;22379;-72
2023/06/25 08:00:35;;;;;;;5.10;4.80;;;;;;;23.93;85.39;100012.15;91027;1269;139136;-70
2023/06/25 08:02:37;;;;;;;4.10;3.90;;;;;;;23.98;86.68;100006.94;91151;1270;22283;-72
2023/06/25 08:04:39;;;;;;;4.80;3.60;;;;;;;24.04;87.42;100007.48;91043;1270;138870;-73
2023/06/25 08:06:40;;;;;;;4.20;4.00;;;;;;;24.10;87.22;100009.05;91101;1270;22393;-71
2023/06/25 08:08:42;;;;;;;4.50;4.20;;;;;;;24.10;86.36;100001.45;91046;1272;139276;-74
2023/06/25 08:10:44;;;;;;;6.10;5.70;;;;;;;24.15;84.95;100002.21;91116;1270;22470;-74
2023/06/25 08:12:46;;;;;;;4.30;4.00;;;;;;;24.27;85.01;100006.62;90958;1272;137733;-74
2023/06/25 08:14:48;;;;;;;4.40;4.20;;;;;;;24.36;85.10;100004.79;91147;1270;22216;-75
2023/06/25 08:16:49;;;;;;;3.90;3.60;;;;;;;24.44;86.45;100003.23;91040;1270;138297;-73
2023/06/25 08:18:51;;;;;;;3.60;3.30;;;;;;;24.56;86.22;100004.10;91113;1270;22464;-71
2023/06/25 08:20:53;;;;;;;4.60;4.10;;;;;;;24.69;86.60;100001.94;91042;1271;137665;-70
2023/06/25 08:22:54;;;;;;;4.20;4.00;;;;;;;24.77;84.98;100006.20;91114;1271;22376;-73
2023/06/25 08:24:56;;;;;;;3.80;3.60;;;;;;;24.80;83.96;100006.88;91009;1270;137840;-73
2023/06/25 08:26:58;;;;;;;3.70;3.40;;;;;;;24.81;83.13;100006.74;91156;1271;23086;-68
2023/06/25 08:28:59;;;;;;;4.40;4.10;;;;;;;24.78;82.57;100010.71;90959;1276;138389;-70
2023/06/25 08:31:04;;;;;;;4.40;4.00;;;;;;;24.75;81.94;100009.06;91179;1274;22825;-74
2023/06/25 08:33:06;;;;;;;5.30;5.00;;;;;;;24.70;84.58;100008.63;90862;1272;137276;-73
2023/06/25 08:35:08;;;;;;;4.80;4.40;;;;;;;24.70;84.00;100008.08;91155;1260;22336;-72
2023/06/25 08:37:10;;;;;;;4.50;4.20;;;;;;;24.78;83.68;100009.61;90861;1274;139258;-69
2023/06/25 08:39:12;;;;;;;4.40;4.10;;;;;;;24.91;82.88;100007.01;91142;1270;23104;-73
2023/06/25 08:41:13;;;;;;;4.50;3.90;;;;;;;25.02;81.43;100008.56;91052;1260;138778;-77
2023/06/25 08:43:15;;;;;;;4.70;4.50;;;;;;;25.11;79.15;100008.94;91138;1272;22499;-73
2023/06/25 08:45:17;;;;;;;4.60;4.30;;;;;;;25.17;79.32;100009.08;91048;1270;138517;-72
2023/06/25 08:47:19;;;;;;;4.40;4.20;;;;;;;25.20;78.66;100003.95;91168;1270;22249;-70
2023/06/25 08:49:28;;;;;;;4.50;4.20;;;;;;;25.21;78.66;100007.50;91027;1270;139088;-73
2023/06/25 08:51:30;;;;;;;4.50;4.10;;;;;;;25.18;77.80;100003.39;91152;1270;22158;-73
2023/06/25 08:53:32;;;;;;;5.90;4.40;;;;;;;25.13;79.07;100002.75;91053;1270;138632;-73
2023/06/25 08:55:36;;;;;;;4.80;4.30;;;;;;;25.12;80.24;100001.83;91078;1270;23060;-73
2023/06/25 08:57:38;;;;;;;;;;;;;;;25.15;79.57;100003.59;91080;1254;137223;-74
2023/06/25 08:59:40;;;;;;;5.00;4.40;;;;;;;25.18;77.89;99999.46;91151;1270;22383;-72
2023/06/25 09:01:42;;;;;;;5.90;4.30;;;;;;;25.19;77.83;99999.66;91061;1259;138915;-73
2023/06/25 09:03:43;;;;;;;4.90;4.50;;;;;;;25.27;78.52;99995.21;91138;1270;22352;-73
2023/06/25 09:05:55;;;;;;;4.40;4.00;;;;;;;25.40;78.56;99993.11;91082;1270;139236;-73
2023/06/25 09:07:57;;;;;;;2.80;2.70;;;;;;;25.45;72.88;99996.64;91191;1270;22335;-73
2023/06/25 09:09:59;;;;;;;3.80;3.60;;;;;;;25.36;71.13;99998.20;91101;1270;138032;-73
2023/06/25 09:12:01;;;;;;;3.60;3.40;;;;;;;25.28;72.20;99994.77;91177;1270;22555;-72
2023/06/25 09:14:02;;;;;;;3.50;3.30;;;;;;;25.25;71.37;99991.41;91034;1270;146482;-74
2023/06/25 09:16:06;;;;;;;2.70;2.60;;;;;;;25.30;70.36;99994.03;90995;1272;138018;-73
2023/06/25 09:18:07;;;;;;;4.50;3.50;;;;;;;25.34;68.65;99995.34;91264;1275;22396;-73
2023/06/25 09:20:09;;;;;;;3.30;3.00;;;;;;;25.35;68.58;99988.33;90954;1255;137938;-73
2023/06/25 09:22:11;;;;;;;3.80;3.50;;;;;;;25.34;68.56;99978.14;91164;1269;22441;-69